Time;durP1;ratioP1;P1;durP2;ratioP2;P2;SDS_P1;SDS_P2;PMS_P1;PMS_P2;Temp;Humidity;BMP_temperature;BMP_pressure;BME280_temperature;BME280_humidity;BME280_pressure;Samples;Min_cycle;Max_cycle;Signal;HPM_P1;HPM_P2
2023/07/11 00:00:33;;;;;;;;;;;19.40;82.30;;;;;;5089149;28;19932;-43
2023/07/11 00:03:01;;;;;;;;;;;19.40;81.40;;;;;;5080881;28;19970;-43
2023/07/11 00:05:28;;;;;;;;;;;19.40;82.00;;;;;;5076800;28;19931;-43
2023/07/11 00:07:55;;;;;;;;;;;19.40;82.40;;;;;;5072524;28;19931;-43
2023/07/11 00:10:21;;;;;;;;;;;19.30;82.70;;;;;;5070252;28;19925;-43
2023/07/11 00:12:48;;;;;;;;;;;19.30;82.10;;;;;;5071260;28;19994;-44
2023/07/11 00:15:15;;;;;;;;;;;19.30;82.40;;;;;;5081081;28;19939;-43
2023/07/11 00:17:42;;;;;;;;;;;19.30;82.10;;;;;;5121784;27;19928;-42
2023/07/11 00:20:11;;;;;;;;;;;19.30;82.30;;;;;;5073777;28;19924;-43
2023/07/11 00:22:38;;;;;;;;;;;19.30;82.80;;;;;;5071763;28;19925;-43
2023/07/11 00:25:05;;;;;;;;;;;19.30;83.00;;;;;;5064741;28;20314;-43
2023/07/11 00:27:34;;;;;;;;;;;19.20;82.60;;;;;;5066228;28;19935;-44
2023/07/11 00:30:01;;;;;;;;;;;19.30;82.90;;;;;;5073278;28;19951;-43
2023/07/11 00:32:28;;;;;;;;;;;19.30;83.10;;;;;;5072024;28;19966;-42
2023/07/11 00:34:54;;;;;;;;;;;19.30;84.20;;;;;;5074681;28;19989;-43
2023/07/11 00:37:22;;;;;;;;;;;19.20;83.40;;;;;;5063932;28;19924;-43
2023/07/11 00:39:49;;;;;;;;;;;19.20;83.90;;;;;;5057201;28;19931;-43
2023/07/11 00:42:16;;;;;;;;;;;19.20;84.00;;;;;;5073118;28;19924;-42
2023/07/11 00:44:49;;;;;;;;;;;19.20;83.90;;;;;;5078412;28;19924;-40
2023/07/11 00:47:16;;;;;;;;;;;19.20;85.00;;;;;;5119041;27;19924;-43
2023/07/11 00:49:42;;;;;;;;;;;19.20;84.90;;;;;;5076069;28;19932;-42
2023/07/11 00:52:09;;;;;;;;;;;19.20;84.20;;;;;;5071887;28;20381;-43
2023/07/11 00:54:37;;;;;;;;;;;19.30;84.60;;;;;;5071556;28;20343;-43
2023/07/11 00:57:05;;;;;;;;;;;19.30;84.40;;;;;;5108811;27;19924;-43
2023/07/11 00:59:31;;;;;;;;;;;19.30;84.90;;;;;;5071375;28;19997;-43
2023/07/11 01:01:59;;;;;;;;;;;19.20;84.60;;;;;;5063658;28;19929;-43
2023/07/11 01:04:26;;;;;;;;;;;19.20;84.30;;;;;;5071712;28;19924;-43
2023/07/11 01:06:53;;;;;;;;;;;19.20;84.30;;;;;;5083124;28;19932;-42
2023/07/11 01:09:19;;;;;;;;;;;19.20;84.60;;;;;;5076539;28;19931;-43
2023/07/11 01:11:52;;;;;;;;;;;19.20;84.90;;;;;;5112579;27;19924;-43
2023/07/11 01:14:19;;;;;;;;;;;19.20;85.00;;;;;;5085621;28;19929;-42
2023/07/11 01:16:45;;;;;;;;;;;19.10;84.90;;;;;;5068385;28;19951;-43
2023/07/11 01:19:12;;;;;;;;;;;19.10;84.70;;;;;;5070578;28;19989;-43
2023/07/11 01:21:40;;;;;;;;;;;19.10;85.00;;;;;;5069389;28;19948;-43
2023/07/11 01:24:07;;;;;;;;;;;19.00;85.10;;;;;;5070806;28;20269;-42
2023/07/11 01:26:34;;;;;;;;;;;19.00;85.00;;;;;;5078905;28;19927;-43
2023/07/11 01:29:00;;;;;;;;;;;19.00;85.00;;;;;;5075591;28;20517;-43
2023/07/11 01:31:27;;;;;;;;;;;19.00;85.10;;;;;;5071430;28;19925;-43
2023/07/11 01:33:54;;;;;;;;;;;19.00;85.00;;;;;;5073791;28;19924;-42
2023/07/11 01:36:21;;;;;;;;;;;19.00;85.10;;;;;;5074597;28;19931;-42
2023/07/11 01:38:48;;;;;;;;;;;18.90;85.20;;;;;;5081570;28;20453;-43
2023/07/11 01:41:15;;;;;;;;;;;18.90;85.90;;;;;;5070735;28;20454;-42
2023/07/11 01:43:42;;;;;;;;;;;18.90;85.30;;;;;;5062964;28;20327;-43
2023/07/11 01:46:09;;;;;;;;;;;18.80;85.50;;;;;;5090752;28;19924;-42
2023/07/11 01:48:35;;;;;;;;;;;18.80;85.40;;;;;;5074914;28;20414;-43
2023/07/11 01:51:02;;;;;;;;;;;18.80;85.30;;;;;;5072052;28;19925;-41
2023/07/11 01:53:29;;;;;;;;;;;18.80;85.60;;;;;;5069352;28;19931;-43
2023/07/11 01:55:57;;;;;;;;;;;18.70;86.10;;;;;;5071300;28;19932;-43
2023/07/11 01:58:24;;;;;;;;;;;18.70;85.70;;;;;;5068764;28;19931;-43
2023/07/11 02:00:50;;;;;;;;;;;18.70;85.80;;;;;;5074681;28;20296;-43
2023/07/11 02:03:17;;;;;;;;;;;18.70;86.10;;;;;;5071833;28;19931;-42
2023/07/11 02:05:44;;;;;;;;;;;18.70;86.00;;;;;;5088723;28;20301;-43
2023/07/11 02:08:10;;;;;;;;;;;18.60;86.30;;;;;;5100718;28;20365;-43
2023/07/11 02:10:37;;;;;;;;;;;18.60;87.20;;;;;;5063002;28;19924;-43
2023/07/11 02:13:05;;;;;;;;;;;18.60;87.30;;;;;;5068875;28;19925;-43
2023/07/11 02:15:35;;;;;;;;;;;18.60;87.50;;;;;;5106068;28;19932;-43
2023/07/11 02:18:02;;;;;;;;;;;18.50;87.50;;;;;;5068803;28;19924;-43
2023/07/11 02:20:28;;;;;;;;;;;18.50;88.00;;;;;;5066313;28;19925;-43
2023/07/11 02:22:55;;;;;;;;;;;18.50;88.30;;;;;;5070112;28;19924;-43
2023/07/11 02:25:22;;;;;;;;;;;18.40;88.40;;;;;;5106827;28;19925;-43
2023/07/11 02:27:48;;;;;;;;;;;18.40;89.00;;;;;;5084480;28;19985;-43
2023/07/11 02:30:16;;;;;;;;;;;18.30;88.70;;;;;;5104116;28;19931;-43
2023/07/11 02:32:43;;;;;;;;;;;18.30;88.80;;;;;;5065355;28;19972;-42
2023/07/11 02:35:10;;;;;;;;;;;18.30;88.90;;;;;;5063784;28;20329;-43
2023/07/11 02:37:36;;;;;;;;;;;18.30;89.20;;;;;;5073193;28;19936;-43
2023/07/11 02:40:03;;;;;;;;;;;18.30;89.00;;;;;;5076784;28;20384;-42
2023/07/11 02:42:30;;;;;;;;;;;18.30;89.60;;;;;;5071335;28;19969;-42
2023/07/11 02:44:57;;;;;;;;;;;18.20;89.60;;;;;;5078464;28;19986;-44
2023/07/11 02:47:25;;;;;;;;;;;18.20;89.80;;;;;;5074265;28;20300;-43
2023/07/11 02:49:51;;;;;;;;;;;18.20;90.10;;;;;;5072888;28;19924;-43
2023/07/11 02:52:18;;;;;;;;;;;18.20;90.10;;;;;;5067321;28;19990;-43
2023/07/11 02:54:45;;;;;;;;;;;18.20;90.10;;;;;;5071802;28;19983;-43
2023/07/11 02:57:12;;;;;;;;;;;18.10;90.10;;;;;;5054917;28;19925;-42
2023/07/11 02:59:39;;;;;;;;;;;18.10;90.20;;;;;;5074199;28;20015;-43
2023/07/11 03:02:06;;;;;;;;;;;18.10;90.30;;;;;;5116543;27;19924;-42
2023/07/11 03:04:34;;;;;;;;;;;18.10;90.30;;;;;;5069357;28;19960;-43
2023/07/11 03:07:01;;;;;;;;;;;18.00;90.60;;;;;;5062196;28;19932;-43
2023/07/11 03:09:28;;;;;;;;;;;18.00;90.50;;;;;;5073433;28;19925;-43
2023/07/11 03:11:55;;;;;;;;;;;18.00;90.70;;;;;;5054554;28;20024;-43
2023/07/11 03:14:22;;;;;;;;;;;18.00;90.60;;;;;;5075062;28;20343;-44
2023/07/11 03:16:50;;;;;;;;;;;17.90;90.70;;;;;;5064165;28;19929;-43
2023/07/11 03:19:16;;;;;;;;;;;17.90;90.90;;;;;;5068159;28;19932;-43
2023/07/11 03:21:44;;;;;;;;;;;17.90;91.00;;;;;;5074033;28;19928;-43
2023/07/11 03:24:11;;;;;;;;;;;17.90;90.90;;;;;;5114734;27;20007;-44
2023/07/11 03:26:38;;;;;;;;;;;17.80;91.00;;;;;;5084988;28;19971;-43
2023/07/11 03:29:05;;;;;;;;;;;17.80;91.00;;;;;;5074393;28;20340;-43
2023/07/11 03:31:31;;;;;;;;;;;17.80;91.20;;;;;;5106965;27;19924;-44
2023/07/11 03:33:58;;;;;;;;;;;17.80;91.20;;;;;;5082263;28;19935;-43
2023/07/11 03:36:25;;;;;;;;;;;17.80;91.50;;;;;;5084492;28;19924;-42
2023/07/11 03:38:53;;;;;;;;;;;17.80;91.70;;;;;;5085462;28;20429;-43
2023/07/11 03:41:19;;;;;;;;;;;17.80;92.00;;;;;;5074219;28;20388;-43
2023/07/11 03:43:46;;;;;;;;;;;17.80;91.70;;;;;;5062632;28;19928;-43
2023/07/11 03:46:13;;;;;;;;;;;17.70;91.80;;;;;;5077972;28;19978;-44
2023/07/11 03:48:39;;;;;;;;;;;17.70;91.90;;;;;;5073712;28;20292;-44
2023/07/11 03:51:06;;;;;;;;;;;17.70;92.10;;;;;;5085901;28;19925;-44
2023/07/11 03:53:33;;;;;;;;;;;17.70;92.10;;;;;;5073593;28;20343;-43
2023/07/11 03:56:01;;;;;;;;;;;17.70;92.10;;;;;;5071625;28;19932;-44
2023/07/11 03:58:27;;;;;;;;;;;17.70;92.10;;;;;;5071914;28;19924;-43
2023/07/11 04:00:54;;;;;;;;;;;17.70;92.20;;;;;;5064562;28;19968;-43
2023/07/11 04:03:21;;;;;;;;;;;17.70;92.20;;;;;;5071893;28;19932;-43
2023/07/11 04:05:49;;;;;;;;;;;17.70;92.70;;;;;;5076464;28;19931;-43
2023/07/11 04:08:16;;;;;;;;;;;17.70;93.10;;;;;;5077117;28;19947;-43
2023/07/11 04:10:42;;;;;;;;;;;17.70;93.00;;;;;;5086628;28;19924;-43
2023/07/11 04:13:10;;;;;;;;;;;17.70;92.90;;;;;;5080401;28;19928;-44
2023/07/11 04:15:37;;;;;;;;;;;17.70;92.80;;;;;;5086814;28;19924;-43
2023/07/11 04:18:04;;;;;;;;;;;17.70;92.90;;;;;;5073769;28;19928;-43
2023/07/11 04:20:30;;;;;;;;;;;17.70;92.80;;;;;;5071602;28;20331;-43
2023/07/11 04:22:57;;;;;;;;;;;17.70;92.80;;;;;;5070732;28;19928;-44
2023/07/11 04:25:24;;;;;;;;;;;17.70;93.10;;;;;;5073903;28;20476;-43
2023/07/11 04:27:50;;;;;;;;;;;17.70;93.10;;;;;;5071479;28;19940;-42
2023/07/11 04:30:18;;;;;;;;;;;17.70;93.10;;;;;;5053601;28;19933;-42
2023/07/11 04:32:45;;;;;;;;;;;17.70;93.80;;;;;;5075112;28;19932;-43
2023/07/11 04:35:13;;;;;;;;;;;17.80;93.50;;;;;;5078493;28;20408;-43
2023/07/11 04:37:39;;;;;;;;;;;17.80;93.40;;;;;;5072179;28;19928;-43
2023/07/11 04:40:08;;;;;;;;;;;17.80;93.40;;;;;;5071871;28;19932;-44
2023/07/11 04:42:34;;;;;;;;;;;17.80;93.60;;;;;;5076571;28;19931;-44
2023/07/11 04:45:01;;;;;;;;;;;17.80;94.40;;;;;;5081119;28;19928;-43
2023/07/11 04:47:30;;;;;;;;;;;17.90;94.50;;;;;;5086246;28;19925;-44
2023/07/11 04:49:56;;;;;;;;;;;17.90;94.80;;;;;;5082036;28;19928;-43
2023/07/11 04:52:23;;;;;;;;;;;18.00;96.30;;;;;;5105200;28;19935;-43
2023/07/11 04:54:50;;;;;;;;;;;18.00;97.60;;;;;;5072774;28;20006;-43
2023/07/11 04:57:16;;;;;;;;;;;18.00;96.70;;;;;;5071066;28;19928;-44
2023/07/11 04:59:43;;;;;;;;;;;18.10;97.80;;;;;;5071667;28;20387;-43
2023/07/11 05:02:10;;;;;;;;;;;18.10;98.20;;;;;;5076718;28;19928;-44
2023/07/11 05:04:38;;;;;;;;;;;18.10;97.70;;;;;;5085124;28;19929;-43
2023/07/11 05:07:05;;;;;;;;;;;18.10;99.90;;;;;;5071598;28;19931;-43
2023/07/11 05:09:32;;;;;;;;;;;18.20;99.90;;;;;;5071288;28;19969;-43
2023/07/11 05:11:59;;;;;;;;;;;18.20;99.90;;;;;;5067644;28;20241;-44
2023/07/11 05:14:26;;;;;;;;;;;18.20;99.90;;;;;;5070627;28;19925;-43
2023/07/11 05:16:52;;;;;;;;;;;18.30;99.90;;;;;;5070328;28;19924;-44
2023/07/11 05:19:19;;;;;;;;;;;18.30;99.90;;;;;;5081003;28;19925;-43
2023/07/11 05:21:47;;;;;;;;;;;18.40;99.90;;;;;;5072216;28;20347;-44
2023/07/11 05:24:14;;;;;;;;;;;18.50;99.90;;;;;;5071128;28;19978;-43
2023/07/11 05:26:40;;;;;;;;;;;18.50;99.90;;;;;;5071262;28;19946;-44
2023/07/11 05:29:07;;;;;;;;;;;18.60;99.90;;;;;;5069185;28;19924;-42
2023/07/11 05:31:34;;;;;;;;;;;18.60;99.90;;;;;;5075946;28;20388;-43
2023/07/11 05:34:01;;;;;;;;;;;18.70;99.90;;;;;;5103345;28;20376;-44
2023/07/11 05:36:31;;;;;;;;;;;18.80;99.90;;;;;;5057177;28;19971;-43
2023/07/11 05:39:00;;;;;;;;;;;18.90;99.90;;;;;;5095852;27;19931;-43
2023/07/11 05:41:26;;;;;;;;;;;19.10;99.90;;;;;;5057755;28;20339;-43
2023/07/11 05:43:54;;;;;;;;;;;19.20;99.90;;;;;;5065439;28;20384;-42
2023/07/11 05:46:20;;;;;;;;;;;19.20;99.90;;;;;;5068203;28;19928;-44
2023/07/11 05:48:47;;;;;;;;;;;19.30;99.90;;;;;;5081931;28;19924;-42
2023/07/11 05:51:14;;;;;;;;;;;19.40;99.90;;;;;;5103232;28;19928;-43
2023/07/11 05:53:41;;;;;;;;;;;19.50;99.90;;;;;;5069760;28;19925;-43
2023/07/11 05:56:09;;;;;;;;;;;19.50;99.90;;;;;;5058254;28;19925;-43
2023/07/11 05:58:35;;;;;;;;;;;19.70;99.90;;;;;;5069427;28;19935;-43
2023/07/11 06:04:18;;;;;;;;;;;19.70;99.90;;;;;;5066345;28;20352;-42
2023/07/11 06:06:45;;;;;;;;;;;19.80;99.90;;;;;;5053155;28;19925;-43
2023/07/11 06:09:12;;;;;;;;;;;20.00;99.90;;;;;;5070038;28;20384;-43
2023/07/11 06:11:40;;;;;;;;;;;20.10;99.90;;;;;;5067986;28;19932;-43
2023/07/11 06:14:07;;;;;;;;;;;20.20;99.90;;;;;;5059885;28;19925;-42
2023/07/11 06:16:33;;;;;;;;;;;20.40;99.90;;;;;;5053760;28;19931;-44
2023/07/11 06:19:00;;;;;;;;;;;20.50;99.90;;;;;;5059968;28;19933;-43
2023/07/11 06:21:27;;;;;;;;;;;20.60;99.90;;;;;;5071252;28;19925;-43
2023/07/11 06:23:54;;;;;;;;;;;20.70;99.90;;;;;;5084750;28;19928;-43
2023/07/11 06:26:20;;;;;;;;;;;20.80;99.90;;;;;;5074242;28;19928;-43
2023/07/11 06:28:48;;;;;;;;;;;21.00;99.90;;;;;;5088232;28;19990;-43
2023/07/11 06:31:15;;;;;;;;;;;21.10;99.90;;;;;;5066676;28;19929;-43
2023/07/11 06:33:42;;;;;;;;;;;21.30;99.90;;;;;;5070724;28;19925;-43
2023/07/11 06:36:08;;;;;;;;;;;21.40;99.90;;;;;;5081334;28;20434;-43
2023/07/11 06:38:35;;;;;;;;;;;21.50;99.90;;;;;;5082521;28;19928;-43
2023/07/11 06:41:02;;;;;;;;;;;21.70;99.90;;;;;;5082122;28;19923;-43
2023/07/11 06:43:29;;;;;;;;;;;21.80;99.90;;;;;;5068678;28;20360;-42
2023/07/11 06:45:57;;;;;;;;;;;21.90;99.90;;;;;;5057874;28;19932;-44
2023/07/11 06:48:24;;;;;;;;;;;22.00;99.90;;;;;;5078049;28;19928;-43
2023/07/11 06:50:51;;;;;;;;;;;22.10;99.90;;;;;;5071638;28;19924;-43
2023/07/11 06:53:18;;;;;;;;;;;22.20;99.90;;;;;;5072674;28;20300;-43
2023/07/11 06:55:45;;;;;;;;;;;22.30;99.90;;;;;;5073072;28;19956;-44
2023/07/11 06:58:12;;;;;;;;;;;22.30;99.80;;;;;;5081105;28;19947;-44
2023/07/11 07:00:39;;;;;;;;;;;22.40;99.90;;;;;;5086617;28;20006;-43
2023/07/11 07:03:07;;;;;;;;;;;22.60;99.60;;;;;;5072518;28;20346;-44
2023/07/11 07:05:34;;;;;;;;;;;22.70;99.80;;;;;;5098814;27;19935;-43
2023/07/11 07:08:01;;;;;;;;;;;22.90;99.30;;;;;;5081501;28;19954;-43
2023/07/11 07:10:27;;;;;;;;;;;23.00;99.10;;;;;;5080607;28;19982;-43
2023/07/11 07:12:54;;;;;;;;;;;23.00;99.00;;;;;;5072387;28;19932;-43
2023/07/11 07:15:21;;;;;;;;;;;23.10;99.00;;;;;;5072348;28;19950;-44
2023/07/11 07:17:47;;;;;;;;;;;23.20;98.90;;;;;;5073240;28;19978;-44
2023/07/11 07:20:15;;;;;;;;;;;23.20;98.60;;;;;;5071188;28;19928;-43
2023/07/11 07:22:42;;;;;;;;;;;23.30;98.80;;;;;;5071896;28;19986;-43
2023/07/11 07:25:09;;;;;;;;;;;23.50;98.90;;;;;;5098967;27;19932;-43
2023/07/11 07:27:36;;;;;;;;;;;23.70;98.20;;;;;;5053955;28;19968;-44
2023/07/11 07:30:03;;;;;;;;;;;23.80;97.90;;;;;;5075287;28;19931;-44
2023/07/11 07:32:30;;;;;;;;;;;23.90;97.50;;;;;;5076367;28;20442;-43
2023/07/11 07:34:57;;;;;;;;;;;24.10;97.50;;;;;;5053677;28;19989;-43
2023/07/11 07:37:25;;;;;;;;;;;24.20;96.80;;;;;;5061359;28;19970;-44
2023/07/11 07:39:51;;;;;;;;;;;24.30;97.20;;;;;;5071660;28;20285;-43
2023/07/11 07:42:18;;;;;;;;;;;24.50;97.10;;;;;;5073251;28;19977;-43
2023/07/11 07:44:45;;;;;;;;;;;24.60;96.80;;;;;;5072762;28;20426;-43
2023/07/11 07:47:11;;;;;;;;;;;24.60;96.80;;;;;;5072573;28;20334;-44
2023/07/11 07:49:38;;;;;;;;;;;24.70;96.60;;;;;;5071777;28;19924;-44
2023/07/11 07:52:05;;;;;;;;;;;24.80;95.70;;;;;;5063801;28;20493;-43
2023/07/11 07:54:33;;;;;;;;;;;24.90;95.80;;;;;;5072247;28;20373;-43
2023/07/11 07:57:00;;;;;;;;;;;24.90;95.20;;;;;;5068792;28;20399;-44
2023/07/11 07:59:26;;;;;;;;;;;25.00;95.20;;;;;;5091866;28;20352;-44
2023/07/11 08:01:53;;;;;;;;;;;25.10;94.80;;;;;;5071895;28;20402;-43
2023/07/11 08:04:20;;;;;;;;;;;25.30;94.70;;;;;;5063293;28;20902;-43
2023/07/11 08:06:46;;;;;;;;;;;25.50;94.70;;;;;;5077175;28;19981;-44
2023/07/11 08:09:13;;;;;;;;;;;25.70;93.80;;;;;;5075173;28;19932;-43
2023/07/11 08:11:42;;;;;;;;;;;25.90;93.80;;;;;;5060127;28;20006;-43
2023/07/11 08:14:09;;;;;;;;;;;26.10;93.50;;;;;;5065178;28;20025;-43
2023/07/11 08:16:36;;;;;;;;;;;26.30;93.00;;;;;;5096207;28;19929;-45
2023/07/11 08:19:04;;;;;;;;;;;26.40;92.20;;;;;;5103881;27;19928;-44
2023/07/11 08:21:31;;;;;;;;;;;26.50;92.40;;;;;;5066752;28;19924;-43
2023/07/11 08:23:58;;;;;;;;;;;26.70;92.20;;;;;;5062655;28;19933;-43
2023/07/11 08:26:24;;;;;;;;;;;26.80;91.60;;;;;;5073567;28;19936;-43
2023/07/11 08:28:54;;;;;;;;;;;27.10;91.20;;;;;;5055752;28;19924;-43
2023/07/11 08:31:26;;;;;;;;;;;27.10;90.40;;;;;;5077592;28;19934;-44
2023/07/11 08:33:53;;;;;;;;;;;27.20;90.10;;;;;;5072355;28;19932;-43
2023/07/11 08:36:20;;;;;;;;;;;27.40;90.60;;;;;;5071969;28;19971;-44
2023/07/11 08:38:46;;;;;;;;;;;27.40;89.20;;;;;;5079026;28;20465;-44
2023/07/11 08:41:18;;;;;;;;;;;27.50;90.00;;;;;;5079503;28;20442;-42
2023/07/11 08:43:45;;;;;;;;;;;27.50;90.10;;;;;;5057253;28;20045;-43
2023/07/11 08:46:14;;;;;;;;;;;27.50;89.30;;;;;;5069889;28;19928;-44
2023/07/11 08:48:42;;;;;;;;;;;27.60;87.60;;;;;;5079060;28;19931;-43
2023/07/11 08:51:11;;;;;;;;;;;27.70;86.90;;;;;;5065346;28;20405;-43
2023/07/11 08:53:38;;;;;;;;;;;27.80;84.70;;;;;;5102399;28;19924;-43
2023/07/11 08:56:14;;;;;;;;;;;27.90;84.10;;;;;;5070342;28;20343;-43
2023/07/11 08:58:41;;;;;;;;;;;28.10;82.00;;;;;;5071163;28;20426;-43
2023/07/11 09:01:13;;;;;;;;;;;28.10;83.40;;;;;;5073084;28;19924;-44
2023/07/11 09:03:42;;;;;;;;;;;28.10;79.60;;;;;;5072445;28;19939;-44
2023/07/11 09:06:12;;;;;;;;;;;28.10;80.80;;;;;;5065493;28;19924;-44
2023/07/11 09:08:39;;;;;;;;;;;28.10;77.20;;;;;;5065669;28;20335;-43
2023/07/11 09:11:08;;;;;;;;;;;28.10;77.80;;;;;;5074386;28;19952;-43
2023/07/11 09:13:50;;;;;;;;;;;28.10;80.50;;;;;;5068890;28;19994;-44
2023/07/11 09:16:19;;;;;;;;;;;28.10;81.00;;;;;;5097806;27;19982;-43
2023/07/11 09:18:48;;;;;;;;;;;28.10;77.60;;;;;;5060328;28;19991;-43
2023/07/11 09:21:16;;;;;;;;;;;28.20;80.40;;;;;;5075879;28;20335;-43
2023/07/11 09:23:44;;;;;;;;;;;28.30;77.70;;;;;;5087065;28;19936;-43
2023/07/11 09:26:13;;;;;;;;;;;28.40;79.00;;;;;;5078991;28;19960;-44
2023/07/11 09:28:40;;;;;;;;;;;28.60;78.50;;;;;;5069885;28;19925;-43
2023/07/11 09:31:07;;;;;;;;;;;28.70;78.30;;;;;;5080761;28;19924;-44
2023/07/11 09:33:35;;;;;;;;;;;28.90;75.10;;;;;;5050717;28;19936;-45
2023/07/11 09:36:03;;;;;;;;;;;29.00;75.20;;;;;;5066434;28;19932;-43
2023/07/11 09:38:31;;;;;;;;;;;29.10;75.50;;;;;;5069869;28;19924;-41
2023/07/11 09:40:59;;;;;;;;;;;29.20;72.70;;;;;;5067911;28;19924;-43
2023/07/11 09:43:26;;;;;;;;;;;29.20;75.00;;;;;;5072501;28;19928;-43
2023/07/11 09:45:52;;;;;;;;;;;29.30;75.50;;;;;;5090421;28;19933;-43
2023/07/11 09:48:19;;;;;;;;;;;29.50;71.50;;;;;;5054686;28;20292;-43
2023/07/11 09:50:49;;;;;;;;;;;29.60;74.00;;;;;;5079408;28;20197;-43
2023/07/11 09:53:18;;;;;;;;;;;29.80;72.20;;;;;;5103237;28;19928;-42
2023/07/11 09:55:44;;;;;;;;;;;29.90;71.80;;;;;;5094074;28;19925;-43
2023/07/11 09:58:15;;;;;;;;;;;29.90;73.10;;;;;;5074245;28;19978;-43
2023/07/11 10:00:46;;;;;;;;;;;29.90;73.00;;;;;;5076509;28;19936;-43
2023/07/11 10:03:16;;;;;;;;;;;30.10;72.20;;;;;;5064919;28;20273;-43
2023/07/11 10:05:43;;;;;;;;;;;30.20;72.00;;;;;;5081675;28;19979;-43
2023/07/11 10:08:14;;;;;;;;;;;30.20;70.50;;;;;;5057937;28;19924;-44
2023/07/11 10:10:43;;;;;;;;;;;30.30;71.30;;;;;;5067349;28;19926;-44
2023/07/11 10:13:10;;;;;;;;;;;30.50;72.70;;;;;;5065662;28;19979;-44
2023/07/11 10:15:37;;;;;;;;;;;30.70;73.50;;;;;;5073624;28;19924;-43
2023/07/11 10:18:03;;;;;;;;;;;30.90;73.00;;;;;;5072488;28;19932;-43
2023/07/11 10:20:31;;;;;;;;;;;31.00;72.60;;;;;;5065642;28;19924;-43
2023/07/11 10:23:02;;;;;;;;;;;31.10;69.30;;;;;;5072232;28;19970;-43
2023/07/11 10:25:30;;;;;;;;;;;31.20;71.30;;;;;;5101005;27;19932;-43
2023/07/11 10:28:00;;;;;;;;;;;31.40;70.50;;;;;;5121001;27;20443;-43
2023/07/11 10:30:28;;;;;;;;;;;31.50;70.70;;;;;;5076262;28;19928;-43
2023/07/11 10:32:56;;;;;;;;;;;31.70;69.50;;;;;;5073219;28;19924;-45
2023/07/11 10:35:22;;;;;;;;;;;31.70;69.70;;;;;;5071303;28;19925;-43
2023/07/11 10:37:50;;;;;;;;;;;31.70;67.80;;;;;;5061327;28;19960;-43
2023/07/11 10:40:19;;;;;;;;;;;31.80;68.50;;;;;;5058603;28;20076;-43
2023/07/11 10:42:46;;;;;;;;;;;31.90;68.50;;;;;;5084250;28;19935;-43
2023/07/11 10:45:15;;;;;;;;;;;31.90;67.80;;;;;;5067931;28;19971;-42
2023/07/11 10:47:52;;;;;;;;;;;31.90;66.40;;;;;;5087181;28;19925;-42
2023/07/11 10:50:31;;;;;;;;;;;31.90;67.20;;;;;;5090718;28;19924;-43
2023/07/11 10:52:59;;;;;;;;;;;32.00;68.70;;;;;;5086700;28;19924;-44
2023/07/11 10:55:27;;;;;;;;;;;32.10;68.40;;;;;;5082929;28;20672;-43
2023/07/11 10:57:55;;;;;;;;;;;32.10;68.70;;;;;;5073584;28;20013;-42
2023/07/11 11:00:33;;;;;;;;;;;32.00;67.80;;;;;;5081558;28;19928;-43
2023/07/11 11:03:02;;;;;;;;;;;31.90;67.50;;;;;;5088264;28;20142;-44
2023/07/11 11:05:29;;;;;;;;;;;31.90;68.70;;;;;;5058588;28;20364;-43
2023/07/11 11:07:57;;;;;;;;;;;32.10;68.40;;;;;;5065037;28;19928;-44
2023/07/11 11:10:27;;;;;;;;;;;32.30;67.70;;;;;;5071232;28;19924;-43
2023/07/11 11:12:55;;;;;;;;;;;32.30;67.10;;;;;;5085580;28;19929;-42
2023/07/11 11:15:39;;;;;;;;;;;32.30;66.10;;;;;;5075355;28;20337;-43
2023/07/11 11:18:10;;;;;;;;;;;32.30;66.70;;;;;;5053481;28;19929;-43
2023/07/11 11:20:38;;;;;;;;;;;32.30;66.80;;;;;;5068623;28;19925;-44
2023/07/11 11:23:09;;;;;;;;;;;32.40;66.30;;;;;;5106911;27;19929;-44
2023/07/11 11:25:37;;;;;;;;;;;32.60;67.00;;;;;;5071030;28;19955;-44
2023/07/11 11:28:06;;;;;;;;;;;32.70;66.60;;;;;;5071904;28;21253;-43
2023/07/11 11:30:37;;;;;;;;;;;32.70;65.60;;;;;;5086744;28;19924;-44
2023/07/11 11:33:09;;;;;;;;;;;32.70;66.20;;;;;;5056255;28;19925;-43
2023/07/11 11:35:36;;;;;;;;;;;32.80;64.70;;;;;;5106314;28;19967;-43
2023/07/11 11:38:18;;;;;;;;;;;32.90;63.80;;;;;;5091783;28;20379;-43
2023/07/11 11:40:46;;;;;;;;;;;32.90;65.90;;;;;;5090929;28;19931;-43
2023/07/11 11:43:14;;;;;;;;;;;32.90;64.70;;;;;;5093111;28;19970;-44
2023/07/11 11:45:40;;;;;;;;;;;33.00;64.00;;;;;;5088932;28;19924;-44
2023/07/11 11:48:10;;;;;;;;;;;33.00;63.90;;;;;;5080559;28;19928;-44
2023/07/11 11:50:37;;;;;;;;;;;33.10;62.80;;;;;;5117194;27;20398;-43
2023/07/11 11:53:16;;;;;;;;;;;33.20;63.70;;;;;;5089291;28;19925;-43
2023/07/11 11:55:46;;;;;;;;;;;33.30;62.50;;;;;;5082666;28;20011;-44
2023/07/11 11:58:15;;;;;;;;;;;33.40;61.20;;;;;;5077895;28;20019;-44
2023/07/11 12:00:45;;;;;;;;;;;33.40;62.30;;;;;;5075532;28;19925;-42
2023/07/11 12:03:19;;;;;;;;;;;33.40;62.00;;;;;;5072023;28;19977;-44
2023/07/11 12:05:48;;;;;;;;;;;33.40;62.10;;;;;;5120834;27;19952;-44
2023/07/11 12:08:23;;;;;;;;;;;33.40;62.30;;;;;;5073574;28;19967;-44
2023/07/11 12:11:01;;;;;;;;;;;33.40;61.60;;;;;;5072580;28;19925;-43
2023/07/11 12:13:28;;;;;;;;;;;33.50;62.90;;;;;;5076038;28;19975;-44
2023/07/11 12:15:54;;;;;;;;;;;33.70;63.00;;;;;;5093708;28;19924;-44
2023/07/11 12:18:27;;;;;;;;;;;33.70;60.80;;;;;;5093077;28;19924;-44
2023/07/11 12:21:07;;;;;;;;;;;33.80;61.80;;;;;;5126434;27;20289;-43
2023/07/11 12:23:34;;;;;;;;;;;33.80;61.80;;;;;;5063739;28;19928;-44
2023/07/11 12:26:11;;;;;;;;;;;33.80;61.30;;;;;;5112324;27;19970;-44
2023/07/11 12:28:37;;;;;;;;;;;33.80;62.40;;;;;;5121365;27;19924;-43
2023/07/11 12:31:05;;;;;;;;;;;33.90;62.70;;;;;;5093077;28;19924;-43
2023/07/11 12:33:37;;;;;;;;;;;34.00;60.10;;;;;;5092577;28;20406;-43
2023/07/11 12:36:24;;;;;;;;;;;33.90;59.80;;;;;;5090991;28;20018;-43
2023/07/11 12:38:54;;;;;;;;;;;33.90;61.70;;;;;;5074821;28;19925;-44
2023/07/11 12:41:22;;;;;;;;;;;33.90;62.10;;;;;;5105983;28;20346;-44
2023/07/11 12:43:49;;;;;;;;;;;33.90;63.00;;;;;;5072890;28;19970;-43
2023/07/11 12:46:18;;;;;;;;;;;33.90;59.90;;;;;;5073067;28;19951;-44
2023/07/11 12:48:46;;;;;;;;;;;33.70;60.60;;;;;;5075023;28;19924;-44
2023/07/11 12:51:23;;;;;;;;;;;33.60;59.90;;;;;;5093306;28;19932;-44
2023/07/11 12:53:49;;;;;;;;;;;33.40;59.60;;;;;;5123149;27;19969;-43
2023/07/11 12:56:16;;;;;;;;;;;33.30;61.70;;;;;;5065386;28;19963;-44
2023/07/11 12:58:43;;;;;;;;;;;33.20;61.20;;;;;;5072436;28;19924;-44
2023/07/11 13:01:12;;;;;;;;;;;33.20;61.20;;;;;;5057098;28;19935;-44
2023/07/11 13:03:39;;;;;;;;;;;33.20;61.70;;;;;;5059470;28;20025;-44
2023/07/11 13:06:16;;;;;;;;;;;33.20;61.20;;;;;;5067015;28;20681;-44
2023/07/11 13:08:43;;;;;;;;;;;33.20;62.10;;;;;;5111669;27;19931;-44
2023/07/11 13:11:16;;;;;;;;;;;33.20;62.50;;;;;;5089335;28;19984;-44
2023/07/11 13:13:42;;;;;;;;;;;33.10;61.10;;;;;;5089202;28;19959;-44
2023/07/11 13:16:10;;;;;;;;;;;32.90;60.70;;;;;;5066200;28;19978;-44
2023/07/11 13:18:39;;;;;;;;;;;32.70;61.60;;;;;;5071736;28;20334;-44
2023/07/11 13:21:06;;;;;;;;;;;32.70;63.20;;;;;;5069182;28;20009;-43
2023/07/11 13:23:34;;;;;;;;;;;32.60;63.20;;;;;;5072741;28;19924;-44
2023/07/11 13:26:01;;;;;;;;;;;32.50;63.50;;;;;;5066073;28;19931;-44
2023/07/11 13:28:32;;;;;;;;;;;32.40;63.10;;;;;;5072440;28;20256;-44
2023/07/11 13:30:59;;;;;;;;;;;32.40;62.60;;;;;;5063998;28;19924;-44
2023/07/11 13:33:29;;;;;;;;;;;32.30;64.10;;;;;;5069792;28;19954;-44
2023/07/11 13:35:57;;;;;;;;;;;32.30;64.00;;;;;;5065638;28;20125;-44
2023/07/11 13:38:32;;;;;;;;;;;32.30;64.90;;;;;;5052248;28;19976;-44
2023/07/11 13:41:01;;;;;;;;;;;32.10;64.00;;;;;;5070737;28;19933;-44
2023/07/11 13:43:27;;;;;;;;;;;32.00;64.00;;;;;;5119714;27;19939;-42
2023/07/11 13:45:54;;;;;;;;;;;31.90;64.80;;;;;;5056707;28;19928;-43
2023/07/11 13:48:22;;;;;;;;;;;31.90;65.30;;;;;;5070678;28;19974;-43
2023/07/11 13:50:48;;;;;;;;;;;31.90;64.90;;;;;;5098976;28;19925;-42
2023/07/11 13:53:15;;;;;;;;;;;31.90;65.20;;;;;;5062530;28;19970;-42
2023/07/11 13:55:45;;;;;;;;;;;32.00;64.90;;;;;;5085737;28;19975;-44
2023/07/11 13:58:13;;;;;;;;;;;32.10;65.10;;;;;;5056089;28;19971;-44
2023/07/11 14:00:40;;;;;;;;;;;32.10;64.90;;;;;;5059816;28;20470;-43
2023/07/11 14:03:09;;;;;;;;;;;32.10;65.40;;;;;;5083597;28;19954;-43
2023/07/11 14:05:35;;;;;;;;;;;32.10;64.80;;;;;;5115575;28;20349;-44
2023/07/11 14:08:02;;;;;;;;;;;32.10;65.00;;;;;;5063399;28;20392;-44
2023/07/11 14:10:29;;;;;;;;;;;32.00;64.40;;;;;;5073042;28;20376;-43
2023/07/11 14:12:57;;;;;;;;;;;31.90;64.90;;;;;;5069788;28;20326;-44
2023/07/11 14:15:26;;;;;;;;;;;31.80;65.00;;;;;;5102266;28;20369;-44
2023/07/11 14:17:53;;;;;;;;;;;31.70;65.70;;;;;;5069434;28;19924;-43
2023/07/11 14:20:20;;;;;;;;;;;31.70;65.90;;;;;;5069331;28;19972;-43
2023/07/11 14:22:46;;;;;;;;;;;31.70;66.10;;;;;;5068128;28;20099;-44